Skip Navigation Links Skip Navigation Links

Current Weather

Santacruz Apt, Mumbai (Bombay), India

For information only: do not use for flight planning or navigation.
Latest weather
Observation time Tuesday, October 19, 2021 2:30 PM IST
Local time Tuesday, October 19, 2021 2:57 PM IST
Flight conditions Marginal Visual Meteorological Conditions
Winds
Wind direction West (280°)
Wind speed 10 mph
Visibility 3.7 mi.
Sky condition
Ceiling unlimited
Cloud layer few clouds 2,000 ft.
Cloud layer scattered clouds 2,500 ft.
Temperature 88°F
Dewpoint 75°F
Altimeter 29.83 in.Hg
Derived measurements
Relative humidity 66%
Heat index 98°F
Density altitude 2384 ft.
Remarks
No significant changes expected in the next two hours.
METAR VABB 190900Z 28009KT 6000 FEW020 SCT025 31/24 Q1010 NOSIG

Settings

Location code

InnerDrive.Weather 4.0.6770.0 Release CLR 4.0.30319.42000
Copyright ©2018 Inner Drive Technology. All rights reserved. Portions Copyright ©1986-2018 David Braverman.

Find weather

Site navigation


Skip Navigation Links

Place info

Page info

PayPal - The safer, easier way to pay online!

Return home.

Copyright ©2021 Inner Drive Technology. Purveyors of fine, hand-crafted computer software. Page printed 2021-10-19T09:27:14 UTC.